createdAt,value
2022-12-31T00:01:47.137Z,13.70
2022-12-31T00:04:13.797Z,13.70
2022-12-31T00:06:40.413Z,13.70
2022-12-31T00:09:08.736Z,13.70
2022-12-31T00:11:37.138Z,13.70
2022-12-31T00:14:04.103Z,13.70
2022-12-31T00:16:36.460Z,13.70
2022-12-31T00:19:04.304Z,13.70
2022-12-31T00:21:32.661Z,13.70
2022-12-31T00:23:59.901Z,13.70
2022-12-31T00:26:29.519Z,13.70
2022-12-31T00:28:57.329Z,13.70
2022-12-31T00:31:36.170Z,13.70
2022-12-31T00:34:03.531Z,13.70
2022-12-31T00:36:33.501Z,13.70
2022-12-31T00:39:01.794Z,13.70
2022-12-31T00:41:29.404Z,13.70
2022-12-31T00:43:56.354Z,13.70
2022-12-31T00:46:23.717Z,13.70
2022-12-31T00:48:50.707Z,13.70
2022-12-31T00:51:21.377Z,13.70
2022-12-31T00:53:48.365Z,13.70
2022-12-31T00:56:18.037Z,13.70
2022-12-31T00:58:45.396Z,13.70
2022-12-31T01:01:19.194Z,13.70
2022-12-31T01:03:47.419Z,13.70
2022-12-31T01:06:14.091Z,13.70
2022-12-31T01:08:40.998Z,13.70
2022-12-31T01:11:19.644Z,13.70
2022-12-31T01:13:47.305Z,13.70
2022-12-31T01:16:15.145Z,13.70
2022-12-31T01:18:42.029Z,13.70
2022-12-31T01:21:14.663Z,13.70
2022-12-31T01:23:41.821Z,13.70
2022-12-31T01:26:10.776Z,13.70
2022-12-31T01:28:37.404Z,13.70
2022-12-31T01:31:09.320Z,13.70
2022-12-31T01:33:36.977Z,13.70
2022-12-31T01:36:06.025Z,13.70
2022-12-31T01:38:34.508Z,13.60
2022-12-31T01:41:01.879Z,13.60
2022-12-31T01:43:54.379Z,13.70
2022-12-31T01:46:24.916Z,13.60
2022-12-31T01:48:54.472Z,13.60
2022-12-31T01:51:21.700Z,13.60
2022-12-31T01:53:49.685Z,13.60
2022-12-31T01:56:16.779Z,13.60
2022-12-31T01:58:47.990Z,13.60
2022-12-31T02:01:29.122Z,13.60
2022-12-31T02:03:57.283Z,13.60
2022-12-31T02:06:37.559Z,13.60
2022-12-31T02:09:04.286Z,13.60
2022-12-31T02:11:36.436Z,13.60
2022-12-31T02:14:07.736Z,13.60
2022-12-31T02:16:52.425Z,13.60
2022-12-31T02:19:44.046Z,13.50
2022-12-31T02:22:33.478Z,13.50
2022-12-31T02:25:00.186Z,13.50
2022-12-31T02:27:58.970Z,13.50
2022-12-31T02:30:29.584Z,13.50
2022-12-31T02:33:15.642Z,13.50
2022-12-31T02:35:48.562Z,13.50
2022-12-31T02:38:26.872Z,13.50
2022-12-31T02:40:54.849Z,13.40
2022-12-31T02:43:21.469Z,13.40
2022-12-31T02:45:56.492Z,13.40
2022-12-31T02:48:23.049Z,13.40
2022-12-31T02:51:18.255Z,13.40
2022-12-31T02:54:29.268Z,13.40
2022-12-31T02:57:33.761Z,13.40
2022-12-31T03:00:26.132Z,13.40
2022-12-31T03:02:53.996Z,13.30
2022-12-31T03:05:25.205Z,13.30
2022-12-31T03:07:51.852Z,13.30
2022-12-31T03:10:18.724Z,13.30
2022-12-31T03:12:48.721Z,13.30
2022-12-31T03:15:30.033Z,13.30
2022-12-31T03:18:07.723Z,13.30
2022-12-31T03:21:06.871Z,13.30
2022-12-31T03:23:50.184Z,13.20
2022-12-31T03:26:17.099Z,13.20
2022-12-31T03:28:47.864Z,13.20
2022-12-31T03:31:16.356Z,13.20
2022-12-31T03:33:43.126Z,13.20
2022-12-31T03:36:14.273Z,13.20
2022-12-31T03:38:41.403Z,13.20
2022-12-31T03:41:10.859Z,13.20
2022-12-31T03:43:37.510Z,13.20
2022-12-31T03:46:04.223Z,13.20
2022-12-31T03:48:30.917Z,13.20
2022-12-31T03:50:59.576Z,13.20
2022-12-31T03:53:26.261Z,13.20
2022-12-31T03:55:54.105Z,13.10
2022-12-31T03:58:21.460Z,13.10
2022-12-31T04:00:48.178Z,13.10
2022-12-31T04:03:14.943Z,13.10
2022-12-31T04:05:41.612Z,13.10
2022-12-31T04:08:08.388Z,13.10
2022-12-31T04:10:35.243Z,13.10
2022-12-31T04:13:04.628Z,13.10
2022-12-31T04:15:31.916Z,13.10
2022-12-31T04:17:58.792Z,13.10
2022-12-31T04:20:25.659Z,13.00
2022-12-31T04:22:53.562Z,13.10
2022-12-31T04:25:20.333Z,13.00
2022-12-31T04:27:47.140Z,13.00
2022-12-31T04:30:14.111Z,13.00
2022-12-31T04:32:41.093Z,13.00
2022-12-31T04:35:08.598Z,13.00
2022-12-31T04:37:35.322Z,13.00
2022-12-31T04:40:06.180Z,13.00
2022-12-31T04:42:34.222Z,13.00
2022-12-31T04:45:00.927Z,13.00
2022-12-31T04:47:27.673Z,13.00
2022-12-31T04:49:54.267Z,13.00
2022-12-31T04:52:21.553Z,13.00
2022-12-31T04:54:48.152Z,13.00
2022-12-31T04:57:14.801Z,13.00
2022-12-31T04:59:41.498Z,13.00
2022-12-31T05:02:08.406Z,13.00
2022-12-31T05:04:35.177Z,13.00
2022-12-31T05:07:02.016Z,13.00
2022-12-31T05:09:28.787Z,13.00
2022-12-31T05:11:55.576Z,13.00
2022-12-31T05:14:22.553Z,13.10
2022-12-31T05:16:49.497Z,13.00
2022-12-31T05:19:16.301Z,13.10
2022-12-31T05:21:43.097Z,13.10
2022-12-31T05:24:09.723Z,13.10
2022-12-31T05:26:36.382Z,13.10
2022-12-31T05:29:03.040Z,13.10
2022-12-31T05:31:29.660Z,13.10
2022-12-31T05:33:56.636Z,13.10
2022-12-31T05:36:23.295Z,13.10
2022-12-31T05:38:49.889Z,13.10
2022-12-31T05:41:16.543Z,13.10
2022-12-31T05:43:43.188Z,13.10
2022-12-31T05:46:09.824Z,13.20
2022-12-31T05:48:36.535Z,13.20
2022-12-31T05:51:03.272Z,13.20
2022-12-31T05:53:30.016Z,13.20
2022-12-31T05:55:56.635Z,13.20
2022-12-31T05:58:23.345Z,13.20
2022-12-31T06:00:51.639Z,13.20
2022-12-31T06:03:18.410Z,13.20
2022-12-31T06:05:45.330Z,13.20
2022-12-31T06:08:12.636Z,13.20
2022-12-31T06:10:40.186Z,13.20
2022-12-31T06:13:07.724Z,13.20
2022-12-31T06:15:38.105Z,13.20
2022-12-31T06:18:04.798Z,13.20
2022-12-31T06:20:31.494Z,13.20
2022-12-31T06:22:58.220Z,13.30
2022-12-31T06:25:24.852Z,13.20
2022-12-31T06:27:51.522Z,13.30
2022-12-31T06:30:18.628Z,13.30
2022-12-31T06:32:45.484Z,13.30
2022-12-31T06:35:12.217Z,13.30
2022-12-31T06:37:38.896Z,13.30
2022-12-31T06:40:06.327Z,13.40
2022-12-31T06:42:33.044Z,13.40
2022-12-31T06:44:59.723Z,13.40
2022-12-31T06:47:26.733Z,13.40
2022-12-31T06:49:53.387Z,13.50
2022-12-31T06:52:20.513Z,13.50
2022-12-31T06:54:47.904Z,13.50
2022-12-31T06:57:15.155Z,13.50
2022-12-31T06:59:42.117Z,13.60
2022-12-31T07:02:27.299Z,13.60
2022-12-31T07:05:13.304Z,13.60
2022-12-31T07:08:03.069Z,13.60
2022-12-31T07:10:57.168Z,13.70
2022-12-31T07:13:33.021Z,13.70
2022-12-31T07:16:28.639Z,13.70
2022-12-31T07:19:17.532Z,13.70
2022-12-31T07:21:44.755Z,13.70
2022-12-31T07:24:12.500Z,13.70
2022-12-31T07:27:07.181Z,13.70
2022-12-31T07:29:46.122Z,13.70
2022-12-31T07:32:33.988Z,13.80
2022-12-31T07:35:34.550Z,13.80
2022-12-31T07:38:12.414Z,13.80
2022-12-31T07:41:09.402Z,13.90
2022-12-31T07:43:48.632Z,13.90
2022-12-31T07:46:30.317Z,13.90
2022-12-31T07:48:57.630Z,13.90
2022-12-31T07:51:24.649Z,14.00
2022-12-31T07:53:51.516Z,14.00
2022-12-31T07:56:18.290Z,14.00
2022-12-31T07:59:08.031Z,14.00
2022-12-31T08:02:06.973Z,14.00
2022-12-31T08:05:01.631Z,14.10
2022-12-31T08:08:09.449Z,14.10
2022-12-31T08:10:39.331Z,14.10
2022-12-31T08:13:10.501Z,14.10
2022-12-31T08:15:39.561Z,14.10
2022-12-31T08:18:07.328Z,14.10
2022-12-31T08:20:42.468Z,14.10
2022-12-31T08:23:52.880Z,14.10
2022-12-31T08:26:37.651Z,14.20
2022-12-31T08:29:25.767Z,14.20
2022-12-31T08:32:07.036Z,14.10
2022-12-31T08:34:45.528Z,14.20
2022-12-31T08:37:42.850Z,14.10
2022-12-31T08:40:15.592Z,14.10
2022-12-31T08:43:19.618Z,14.10
2022-12-31T08:45:52.423Z,14.20
2022-12-31T08:48:33.013Z,14.10
2022-12-31T08:50:59.871Z,14.20
2022-12-31T08:53:26.874Z,14.20
2022-12-31T08:56:05.444Z,14.20
2022-12-31T08:58:49.560Z,14.20
2022-12-31T09:01:21.716Z,14.20
2022-12-31T09:03:57.320Z,14.20
2022-12-31T09:06:34.093Z,14.20
2022-12-31T09:09:16.687Z,14.20
2022-12-31T09:11:51.338Z,14.20
2022-12-31T09:14:44.410Z,14.20
2022-12-31T09:17:25.877Z,14.20
2022-12-31T09:19:52.930Z,14.20
2022-12-31T09:22:19.820Z,14.30
2022-12-31T09:24:46.770Z,14.20
2022-12-31T09:27:23.875Z,14.30
2022-12-31T09:30:08.337Z,14.30
2022-12-31T09:33:11.825Z,14.30
2022-12-31T09:35:57.830Z,14.40
2022-12-31T09:38:55.813Z,14.30
2022-12-31T09:41:52.228Z,14.40
2022-12-31T09:45:04.302Z,14.40
2022-12-31T09:47:53.867Z,14.40
2022-12-31T09:50:43.506Z,14.40
2022-12-31T09:53:46.805Z,14.40
2022-12-31T09:56:20.411Z,14.50
2022-12-31T09:58:56.435Z,14.50
2022-12-31T10:01:48.011Z,14.60
2022-12-31T10:04:56.278Z,14.60
2022-12-31T10:07:52.451Z,14.60
2022-12-31T10:10:44.837Z,14.60
2022-12-31T10:13:42.284Z,14.60
2022-12-31T10:16:31.611Z,14.70
2022-12-31T10:19:31.097Z,14.70
2022-12-31T10:22:36.234Z,14.80
2022-12-31T10:25:21.705Z,14.80
2022-12-31T10:28:37.815Z,14.80
2022-12-31T10:31:26.191Z,14.90
2022-12-31T10:34:13.438Z,14.90
2022-12-31T10:37:03.796Z,14.90
2022-12-31T10:39:39.492Z,14.90
2022-12-31T10:42:37.366Z,15.00
2022-12-31T10:45:30.353Z,15.00
2022-12-31T10:48:15.252Z,15.10
2022-12-31T10:51:20.722Z,15.10
2022-12-31T10:54:06.204Z,15.10
2022-12-31T10:56:41.690Z,15.20
2022-12-31T10:59:30.418Z,15.20
2022-12-31T11:02:06.672Z,15.20
2022-12-31T11:05:24.100Z,15.20
2022-12-31T11:08:16.807Z,15.20
2022-12-31T11:10:52.351Z,15.30
2022-12-31T11:13:33.697Z,15.30
2022-12-31T11:16:19.161Z,15.30
2022-12-31T11:19:19.216Z,15.40
2022-12-31T11:22:12.919Z,15.40
2022-12-31T11:25:01.027Z,15.40
2022-12-31T11:27:57.484Z,15.40
2022-12-31T11:30:30.368Z,15.40
2022-12-31T11:33:29.508Z,15.40
2022-12-31T11:36:00.746Z,15.50
2022-12-31T11:38:45.385Z,15.50
2022-12-31T11:41:39.998Z,15.50
2022-12-31T11:44:19.384Z,15.60
2022-12-31T11:46:46.183Z,15.60
2022-12-31T11:49:54.791Z,15.60
2022-12-31T11:53:09.029Z,15.60
2022-12-31T11:56:00.560Z,15.60
2022-12-31T11:58:28.959Z,15.60
2022-12-31T12:01:17.688Z,15.60
2022-12-31T12:03:45.571Z,15.70
2022-12-31T12:06:15.422Z,15.70
2022-12-31T12:08:43.924Z,15.70
2022-12-31T12:11:30.443Z,15.70
2022-12-31T12:13:57.310Z,15.70
2022-12-31T12:16:26.485Z,15.70
2022-12-31T12:19:04.796Z,15.70
2022-12-31T12:21:31.902Z,15.80
2022-12-31T12:24:02.016Z,15.80
2022-12-31T12:26:41.675Z,15.80
2022-12-31T12:29:17.037Z,15.80
2022-12-31T12:32:05.639Z,15.80
2022-12-31T12:34:39.449Z,15.80
2022-12-31T12:37:36.300Z,15.80
2022-12-31T12:40:29.834Z,15.80
2022-12-31T12:42:58.617Z,15.80
2022-12-31T12:45:42.005Z,15.90
2022-12-31T12:48:19.672Z,15.90
2022-12-31T12:50:49.065Z,15.90
2022-12-31T12:53:50.725Z,15.90
2022-12-31T12:56:22.903Z,15.90
2022-12-31T12:59:34.089Z,15.90
2022-12-31T13:02:06.986Z,15.90
2022-12-31T13:04:56.268Z,15.90
2022-12-31T13:07:45.847Z,15.90
2022-12-31T13:10:21.604Z,15.90
2022-12-31T13:13:23.439Z,15.90
2022-12-31T13:16:19.249Z,15.90
2022-12-31T13:19:02.704Z,15.90
2022-12-31T13:21:50.757Z,15.90
2022-12-31T13:24:47.574Z,15.90
2022-12-31T13:27:27.250Z,15.90
2022-12-31T13:29:57.822Z,15.90
2022-12-31T13:32:38.882Z,15.90
2022-12-31T13:35:29.342Z,15.90
2022-12-31T13:38:12.547Z,15.90
2022-12-31T13:40:55.134Z,15.90
2022-12-31T13:43:51.126Z,15.90
2022-12-31T13:46:36.220Z,15.90
2022-12-31T13:49:12.740Z,15.90
2022-12-31T13:51:42.348Z,15.90
2022-12-31T13:54:43.796Z,15.90
2022-12-31T13:57:35.938Z,15.90
2022-12-31T14:00:17.228Z,15.90
2022-12-31T14:03:01.483Z,15.90
2022-12-31T14:05:58.839Z,15.90
2022-12-31T14:08:25.465Z,15.90
2022-12-31T14:11:19.038Z,15.90
2022-12-31T14:13:57.748Z,15.90
2022-12-31T14:16:27.661Z,15.90
2022-12-31T14:19:35.360Z,15.90
2022-12-31T14:22:20.449Z,15.90
2022-12-31T14:24:52.078Z,15.90
2022-12-31T14:27:39.385Z,15.90
2022-12-31T14:30:19.612Z,15.90
2022-12-31T14:33:33.676Z,15.90
2022-12-31T14:36:19.523Z,15.80
2022-12-31T14:38:59.702Z,15.80
2022-12-31T14:41:47.752Z,15.80
2022-12-31T14:44:45.739Z,15.80
2022-12-31T14:47:47.033Z,15.80
2022-12-31T14:50:28.581Z,15.80
2022-12-31T14:52:59.658Z,15.70
2022-12-31T14:55:28.423Z,15.70
2022-12-31T15:00:57.315Z,15.80
2022-12-31T15:03:31.736Z,15.80
2022-12-31T15:06:23.311Z,15.70
2022-12-31T15:09:08.199Z,15.70
2022-12-31T15:12:05.156Z,15.70
2022-12-31T15:15:04.786Z,15.70
2022-12-31T15:18:07.859Z,15.70
2022-12-31T15:20:58.920Z,15.70
2022-12-31T15:23:35.219Z,15.70
2022-12-31T15:26:03.441Z,15.70
2022-12-31T15:28:39.617Z,15.70
2022-12-31T15:31:17.488Z,15.70
2022-12-31T15:34:01.255Z,15.70
2022-12-31T15:36:35.425Z,15.70
2022-12-31T15:39:12.483Z,15.70
2022-12-31T15:42:10.318Z,15.70
2022-12-31T15:44:43.660Z,15.70
2022-12-31T15:47:31.337Z,15.70
2022-12-31T15:50:02.527Z,15.70
2022-12-31T15:52:55.175Z,15.70
2022-12-31T15:55:34.262Z,15.70
2022-12-31T15:58:06.155Z,15.70
2022-12-31T16:01:03.701Z,15.70
2022-12-31T16:03:31.846Z,15.70
2022-12-31T16:06:13.571Z,15.70
2022-12-31T16:08:44.930Z,15.70
2022-12-31T16:11:11.898Z,15.60
2022-12-31T16:13:45.594Z,15.60
2022-12-31T16:16:24.786Z,15.60
2022-12-31T16:18:52.990Z,15.60
2022-12-31T16:21:34.842Z,15.60
2022-12-31T16:24:06.511Z,15.60
2022-12-31T16:26:49.639Z,15.60
2022-12-31T16:29:18.898Z,15.60
2022-12-31T16:31:46.913Z,15.60
2022-12-31T16:34:17.450Z,15.60
2022-12-31T16:37:05.307Z,15.60
2022-12-31T16:39:34.510Z,15.60
2022-12-31T16:42:13.431Z,15.60
2022-12-31T16:44:41.113Z,15.60
2022-12-31T16:47:14.301Z,15.60
2022-12-31T16:49:42.717Z,15.60
2022-12-31T16:52:27.333Z,15.50
2022-12-31T16:54:55.510Z,15.50
2022-12-31T16:57:25.624Z,15.50
2022-12-31T16:59:57.926Z,15.50
2022-12-31T17:02:34.701Z,15.50
2022-12-31T17:05:01.754Z,15.50
2022-12-31T17:07:31.493Z,15.50
2022-12-31T17:10:07.270Z,15.50
2022-12-31T17:12:52.999Z,15.40
2022-12-31T17:15:27.919Z,15.40
2022-12-31T17:17:58.071Z,15.40
2022-12-31T17:20:28.173Z,15.40
2022-12-31T17:22:59.049Z,15.40
2022-12-31T17:25:30.988Z,15.40
2022-12-31T17:28:07.012Z,15.30
2022-12-31T17:30:34.563Z,15.40
2022-12-31T17:33:11.596Z,15.40
2022-12-31T17:35:42.343Z,15.30
2022-12-31T17:38:18.205Z,15.30
2022-12-31T17:40:51.371Z,15.30
2022-12-31T17:43:21.332Z,15.30
2022-12-31T17:45:50.335Z,15.30
2022-12-31T17:48:19.618Z,15.30
2022-12-31T17:50:54.897Z,15.30
2022-12-31T17:53:21.763Z,15.20
2022-12-31T17:55:51.107Z,15.30
2022-12-31T17:58:22.477Z,15.30
2022-12-31T18:00:54.120Z,15.30
2022-12-31T18:03:20.939Z,15.20
2022-12-31T18:05:47.726Z,15.20
2022-12-31T18:08:14.587Z,15.20
2022-12-31T18:10:43.188Z,15.20
2022-12-31T18:13:24.495Z,15.20
2022-12-31T18:15:52.695Z,15.20
2022-12-31T18:18:27.931Z,15.20
2022-12-31T18:21:03.623Z,15.20
2022-12-31T18:26:24.526Z,15.20
2022-12-31T18:28:52.016Z,15.20
2022-12-31T18:31:24.751Z,15.20
2022-12-31T18:33:52.803Z,15.20
2022-12-31T18:36:21.491Z,15.20
2022-12-31T18:38:48.677Z,15.20
2022-12-31T18:41:21.541Z,15.20
2022-12-31T18:43:49.065Z,15.20
2022-12-31T18:46:22.454Z,15.20
2022-12-31T18:48:49.528Z,15.20
2022-12-31T18:51:19.019Z,15.20
2022-12-31T18:53:45.994Z,15.20
2022-12-31T18:56:15.769Z,15.20
2022-12-31T18:58:43.124Z,15.20
2022-12-31T19:01:35.454Z,15.20
2022-12-31T19:04:14.308Z,15.20
2022-12-31T19:06:41.371Z,15.20
2022-12-31T19:09:30.406Z,15.20
2022-12-31T19:11:55.105Z,15.20
2022-12-31T19:14:24.260Z,15.20
2022-12-31T19:16:53.301Z,15.20
2022-12-31T19:19:20.879Z,15.10
2022-12-31T19:21:47.868Z,15.20
2022-12-31T19:24:26.605Z,15.20
2022-12-31T19:26:54.294Z,15.10
2022-12-31T19:29:28.279Z,15.20
2022-12-31T19:31:55.109Z,15.20
2022-12-31T19:34:22.069Z,15.10
2022-12-31T19:36:48.776Z,15.10
2022-12-31T19:39:20.649Z,15.10
2022-12-31T19:41:53.009Z,15.10
2022-12-31T19:44:25.341Z,15.10
2022-12-31T19:46:52.129Z,15.10
2022-12-31T19:49:18.779Z,15.10
2022-12-31T19:51:45.418Z,15.10
2022-12-31T19:54:15.351Z,15.10
2022-12-31T19:56:42.175Z,15.10
2022-12-31T19:59:10.139Z,15.00
2022-12-31T20:01:37.369Z,15.00
2022-12-31T20:04:04.571Z,15.00
2022-12-31T20:06:31.327Z,15.00
2022-12-31T20:08:58.033Z,15.00
2022-12-31T20:11:24.767Z,15.00
2022-12-31T20:13:53.565Z,15.00
2022-12-31T20:16:23.404Z,15.00
2022-12-31T20:18:50.501Z,15.00
2022-12-31T20:21:20.029Z,15.00
2022-12-31T20:23:48.333Z,15.00
2022-12-31T20:26:14.987Z,15.00
2022-12-31T20:28:41.611Z,14.90
2022-12-31T20:31:14.154Z,14.90
2022-12-31T20:33:41.591Z,15.00
2022-12-31T20:36:11.463Z,14.90
2022-12-31T20:38:38.251Z,14.90
2022-12-31T20:41:14.436Z,14.90
2022-12-31T20:43:41.833Z,14.90
2022-12-31T20:46:15.243Z,14.90
2022-12-31T20:48:43.557Z,14.90
2022-12-31T20:51:10.529Z,14.90
2022-12-31T20:53:37.206Z,14.90
2022-12-31T20:56:08.467Z,14.90
2022-12-31T20:58:35.483Z,15.00
2022-12-31T21:01:06.978Z,14.90
2022-12-31T21:06:22.837Z,14.90
2022-12-31T21:08:49.647Z,14.90
2022-12-31T21:11:35.207Z,14.90
2022-12-31T21:14:02.319Z,15.00
2022-12-31T21:16:29.320Z,15.00
2022-12-31T21:18:56.106Z,15.00
2022-12-31T21:21:23.491Z,14.90
2022-12-31T21:23:50.472Z,15.00
2022-12-31T21:26:17.422Z,14.90
2022-12-31T21:28:44.168Z,15.00
2022-12-31T21:31:13.177Z,15.00
2022-12-31T21:33:39.827Z,15.00
2022-12-31T21:36:06.725Z,15.00
2022-12-31T21:38:36.747Z,15.00
2022-12-31T21:41:04.846Z,15.00
2022-12-31T21:43:31.689Z,15.00
2022-12-31T21:46:03.770Z,15.00
2022-12-31T21:48:30.560Z,15.00
2022-12-31T21:51:13.293Z,15.00
2022-12-31T21:53:40.484Z,15.00
2022-12-31T21:56:09.091Z,15.00
2022-12-31T21:58:37.743Z,15.00
2022-12-31T22:01:24.109Z,15.00
2022-12-31T22:03:51.172Z,15.00
2022-12-31T22:06:23.078Z,15.00
2022-12-31T22:08:54.821Z,15.00
2022-12-31T22:11:24.234Z,15.00
2022-12-31T22:13:51.779Z,14.90
2022-12-31T22:16:20.261Z,15.00
2022-12-31T22:18:47.695Z,14.90
2022-12-31T22:21:19.515Z,14.90
2022-12-31T22:23:49.343Z,15.00
2022-12-31T22:26:18.125Z,14.90
2022-12-31T22:28:46.075Z,15.00
2022-12-31T22:31:15.355Z,15.00
2022-12-31T22:33:43.123Z,15.00
2022-12-31T22:36:15.767Z,15.00
2022-12-31T22:38:42.841Z,15.00
2022-12-31T22:41:21.191Z,15.00
2022-12-31T22:43:50.377Z,14.90
2022-12-31T22:46:23.192Z,15.00
2022-12-31T22:48:51.580Z,15.00
2022-12-31T22:51:19.437Z,14.90
2022-12-31T22:53:46.804Z,14.90
2022-12-31T22:56:15.872Z,14.90
2022-12-31T22:58:43.001Z,14.90
2022-12-31T23:01:18.248Z,15.00
2022-12-31T23:03:46.656Z,14.90
2022-12-31T23:06:13.421Z,14.90
2022-12-31T23:08:40.441Z,14.90
2022-12-31T23:11:09.500Z,14.90
2022-12-31T23:14:00.018Z,14.90
2022-12-31T23:16:48.048Z,14.90
2022-12-31T23:19:34.456Z,14.90
2022-12-31T23:22:19.720Z,14.90
2022-12-31T23:24:46.399Z,14.90
2022-12-31T23:27:13.157Z,14.90
2022-12-31T23:29:46.156Z,14.90
2022-12-31T23:32:15.859Z,14.90
2022-12-31T23:34:44.576Z,14.90
2022-12-31T23:37:15.215Z,14.90
2022-12-31T23:39:42.452Z,14.90
2022-12-31T23:42:09.359Z,14.90
2022-12-31T23:44:36.156Z,14.90
2022-12-31T23:47:02.956Z,14.90
2022-12-31T23:49:30.060Z,14.90
2022-12-31T23:51:56.685Z,14.90
2022-12-31T23:54:23.384Z,14.90
2022-12-31T23:56:50.090Z,14.90
2022-12-31T23:59:18.413Z,14.90
